sensor_id;sensor_type;location;lat;lon;timestamp;P1;durP1;ratioP1;P2;durP2;ratioP2
23402;SDS011;11874;48.228;11.684;2023-01-15T00:02:28;1.67;;;0.95;;
23402;SDS011;11874;48.228;11.684;2023-01-15T00:04:57;1.80;;;0.95;;
23402;SDS011;11874;48.228;11.684;2023-01-15T00:07:28;1.00;;;0.90;;
23402;SDS011;11874;48.228;11.684;2023-01-15T00:09:56;0.80;;;0.70;;
23402;SDS011;11874;48.228;11.684;2023-01-15T00:12:23;1.85;;;0.80;;
23402;SDS011;11874;48.228;11.684;2023-01-15T00:14:51;1.23;;;0.90;;
23402;SDS011;11874;48.228;11.684;2023-01-15T00:17:19;1.33;;;0.82;;
23402;SDS011;11874;48.228;11.684;2023-01-15T00:19:48;1.23;;;0.80;;
23402;SDS011;11874;48.228;11.684;2023-01-15T00:22:16;1.00;;;0.82;;
23402;SDS011;11874;48.228;11.684;2023-01-15T00:24:44;2.67;;;0.93;;
23402;SDS011;11874;48.228;11.684;2023-01-15T00:27:29;3.08;;;1.00;;
23402;SDS011;11874;48.228;11.684;2023-01-15T00:30:08;1.27;;;0.90;;
23402;SDS011;11874;48.228;11.684;2023-01-15T00:32:37;2.72;;;0.90;;
23402;SDS011;11874;48.228;11.684;2023-01-15T00:35:09;1.67;;;1.00;;
23402;SDS011;11874;48.228;11.684;2023-01-15T00:37:39;2.78;;;1.20;;
23402;SDS011;11874;48.228;11.684;2023-01-15T00:40:07;2.78;;;1.10;;
23402;SDS011;11874;48.228;11.684;2023-01-15T00:42:36;1.77;;;1.00;;
23402;SDS011;11874;48.228;11.684;2023-01-15T00:45:04;1.35;;;0.85;;
23402;SDS011;11874;48.228;11.684;2023-01-15T00:47:35;1.35;;;0.80;;
23402;SDS011;11874;48.228;11.684;2023-01-15T00:50:04;1.67;;;0.80;;
23402;SDS011;11874;48.228;11.684;2023-01-15T00:52:35;0.85;;;0.70;;
23402;SDS011;11874;48.228;11.684;2023-01-15T00:55:03;1.05;;;0.82;;
23402;SDS011;11874;48.228;11.684;2023-01-15T00:57:32;1.63;;;0.90;;
23402;SDS011;11874;48.228;11.684;2023-01-15T01:00:00;0.80;;;0.80;;
23402;SDS011;11874;48.228;11.684;2023-01-15T01:02:29;1.98;;;0.98;;
23402;SDS011;11874;48.228;11.684;2023-01-15T01:04:57;0.85;;;0.65;;
23402;SDS011;11874;48.228;11.684;2023-01-15T01:07:26;1.58;;;0.90;;
23402;SDS011;11874;48.228;11.684;2023-01-15T01:09:53;1.40;;;1.10;;
23402;SDS011;11874;48.228;11.684;2023-01-15T01:12:21;5.22;;;0.90;;
23402;SDS011;11874;48.228;11.684;2023-01-15T01:14:49;2.83;;;1.02;;
23402;SDS011;11874;48.228;11.684;2023-01-15T01:17:17;1.10;;;1.00;;
23402;SDS011;11874;48.228;11.684;2023-01-15T01:19:45;1.67;;;0.93;;
23402;SDS011;11874;48.228;11.684;2023-01-15T01:22:12;2.90;;;0.90;;
23402;SDS011;11874;48.228;11.684;2023-01-15T01:24:42;1.05;;;0.80;;
23402;SDS011;11874;48.228;11.684;2023-01-15T01:27:09;1.80;;;1.20;;
23402;SDS011;11874;48.228;11.684;2023-01-15T01:29:37;0.95;;;0.82;;
23402;SDS011;11874;48.228;11.684;2023-01-15T01:32:05;2.00;;;0.90;;
23402;SDS011;11874;48.228;11.684;2023-01-15T01:34:33;1.10;;;0.70;;
23402;SDS011;11874;48.228;11.684;2023-01-15T01:37:01;1.10;;;0.80;;
23402;SDS011;11874;48.228;11.684;2023-01-15T01:39:28;2.97;;;1.10;;
23402;SDS011;11874;48.228;11.684;2023-01-15T01:41:57;3.88;;;0.95;;
23402;SDS011;11874;48.228;11.684;2023-01-15T01:47:27;0.70;;;0.70;;
23402;SDS011;11874;48.228;11.684;2023-01-15T01:49:57;1.77;;;0.98;;
23402;SDS011;11874;48.228;11.684;2023-01-15T01:54:59;2.05;;;1.02;;
23402;SDS011;11874;48.228;11.684;2023-01-15T01:57:29;2.17;;;1.08;;
23402;SDS011;11874;48.228;11.684;2023-01-15T01:59:57;1.40;;;1.00;;
23402;SDS011;11874;48.228;11.684;2023-01-15T02:02:28;1.08;;;0.80;;
23402;SDS011;11874;48.228;11.684;2023-01-15T02:04:56;2.63;;;0.82;;
23402;SDS011;11874;48.228;11.684;2023-01-15T02:07:24;1.85;;;0.93;;
23402;SDS011;11874;48.228;11.684;2023-01-15T02:09:52;1.05;;;0.60;;
23402;SDS011;11874;48.228;11.684;2023-01-15T02:12:21;1.55;;;0.60;;
23402;SDS011;11874;48.228;11.684;2023-01-15T02:14:57;1.20;;;0.90;;
23402;SDS011;11874;48.228;11.684;2023-01-15T02:17:32;1.70;;;0.85;;
23402;SDS011;11874;48.228;11.684;2023-01-15T02:20:15;1.48;;;0.85;;
23402;SDS011;11874;48.228;11.684;2023-01-15T02:22:56;0.73;;;0.70;;
23402;SDS011;11874;48.228;11.684;2023-01-15T02:25:43;2.05;;;0.80;;
23402;SDS011;11874;48.228;11.684;2023-01-15T02:28:36;2.25;;;1.27;;
23402;SDS011;11874;48.228;11.684;2023-01-15T02:31:08;2.25;;;1.20;;
23402;SDS011;11874;48.228;11.684;2023-01-15T02:33:40;0.93;;;0.70;;
23402;SDS011;11874;48.228;11.684;2023-01-15T02:36:13;0.85;;;0.63;;
23402;SDS011;11874;48.228;11.684;2023-01-15T02:38:44;0.88;;;0.80;;
23402;SDS011;11874;48.228;11.684;2023-01-15T02:41:14;1.25;;;0.88;;
23402;SDS011;11874;48.228;11.684;2023-01-15T02:43:47;0.85;;;0.70;;
23402;SDS011;11874;48.228;11.684;2023-01-15T02:46:18;0.80;;;0.60;;
23402;SDS011;11874;48.228;11.684;2023-01-15T02:48:51;0.80;;;0.73;;
23402;SDS011;11874;48.228;11.684;2023-01-15T02:51:22;0.80;;;0.70;;
23402;SDS011;11874;48.228;11.684;2023-01-15T02:53:55;2.55;;;0.98;;
23402;SDS011;11874;48.228;11.684;2023-01-15T02:56:28;0.68;;;0.60;;
23402;SDS011;11874;48.228;11.684;2023-01-15T02:59:03;0.88;;;0.70;;
23402;SDS011;11874;48.228;11.684;2023-01-15T03:01:33;2.13;;;0.95;;
23402;SDS011;11874;48.228;11.684;2023-01-15T03:04:09;0.95;;;0.65;;
23402;SDS011;11874;48.228;11.684;2023-01-15T03:06:42;1.00;;;0.90;;
23402;SDS011;11874;48.228;11.684;2023-01-15T03:09:15;1.00;;;0.70;;
23402;SDS011;11874;48.228;11.684;2023-01-15T03:11:45;1.48;;;0.90;;
23402;SDS011;11874;48.228;11.684;2023-01-15T03:14:19;1.20;;;0.80;;
23402;SDS011;11874;48.228;11.684;2023-01-15T03:16:52;0.65;;;0.65;;
23402;SDS011;11874;48.228;11.684;2023-01-15T03:19:23;1.58;;;0.77;;
23402;SDS011;11874;48.228;11.684;2023-01-15T03:21:55;0.93;;;0.80;;
23402;SDS011;11874;48.228;11.684;2023-01-15T03:24:28;1.70;;;0.55;;
23402;SDS011;11874;48.228;11.684;2023-01-15T03:26:59;1.75;;;0.70;;
23402;SDS011;11874;48.228;11.684;2023-01-15T03:29:29;1.23;;;0.80;;
23402;SDS011;11874;48.228;11.684;2023-01-15T03:32:00;0.98;;;0.70;;
23402;SDS011;11874;48.228;11.684;2023-01-15T03:34:29;1.05;;;0.70;;
23402;SDS011;11874;48.228;11.684;2023-01-15T03:37:02;0.70;;;0.60;;
23402;SDS011;11874;48.228;11.684;2023-01-15T03:39:30;1.15;;;0.60;;
23402;SDS011;11874;48.228;11.684;2023-01-15T03:42:02;2.35;;;0.50;;
23402;SDS011;11874;48.228;11.684;2023-01-15T03:44:39;0.80;;;0.50;;
23402;SDS011;11874;48.228;11.684;2023-01-15T03:47:18;2.53;;;0.85;;
23402;SDS011;11874;48.228;11.684;2023-01-15T03:49:56;1.40;;;0.80;;
23402;SDS011;11874;48.228;11.684;2023-01-15T03:52:29;0.80;;;0.70;;
23402;SDS011;11874;48.228;11.684;2023-01-15T03:55:02;0.75;;;0.65;;
23402;SDS011;11874;48.228;11.684;2023-01-15T03:57:36;0.80;;;0.50;;
23402;SDS011;11874;48.228;11.684;2023-01-15T04:00:11;1.23;;;0.73;;
23402;SDS011;11874;48.228;11.684;2023-01-15T04:02:41;1.88;;;1.05;;
23402;SDS011;11874;48.228;11.684;2023-01-15T04:05:12;1.05;;;0.70;;
23402;SDS011;11874;48.228;11.684;2023-01-15T04:07:42;0.65;;;0.65;;
23402;SDS011;11874;48.228;11.684;2023-01-15T04:10:11;0.63;;;0.52;;
23402;SDS011;11874;48.228;11.684;2023-01-15T04:12:39;0.70;;;0.60;;
23402;SDS011;11874;48.228;11.684;2023-01-15T04:15:07;0.88;;;0.70;;
23402;SDS011;11874;48.228;11.684;2023-01-15T04:17:37;0.73;;;0.70;;
23402;SDS011;11874;48.228;11.684;2023-01-15T04:20:06;0.77;;;0.65;;
23402;SDS011;11874;48.228;11.684;2023-01-15T04:22:35;1.98;;;0.75;;
23402;SDS011;11874;48.228;11.684;2023-01-15T04:25:04;1.42;;;0.70;;
23402;SDS011;11874;48.228;11.684;2023-01-15T04:27:33;0.75;;;0.60;;
23402;SDS011;11874;48.228;11.684;2023-01-15T04:30:01;2.17;;;0.70;;
23402;SDS011;11874;48.228;11.684;2023-01-15T04:32:30;1.00;;;0.77;;
23402;SDS011;11874;48.228;11.684;2023-01-15T04:34:58;1.05;;;0.68;;
23402;SDS011;11874;48.228;11.684;2023-01-15T04:37:26;1.05;;;0.93;;
23402;SDS011;11874;48.228;11.684;2023-01-15T04:39:53;0.85;;;0.70;;
23402;SDS011;11874;48.228;11.684;2023-01-15T04:42:21;2.70;;;0.93;;
23402;SDS011;11874;48.228;11.684;2023-01-15T04:45:07;0.90;;;0.70;;
23402;SDS011;11874;48.228;11.684;2023-01-15T04:47:37;1.15;;;0.80;;
23402;SDS011;11874;48.228;11.684;2023-01-15T04:50:05;2.53;;;0.82;;
23402;SDS011;11874;48.228;11.684;2023-01-15T04:52:33;0.82;;;0.70;;
23402;SDS011;11874;48.228;11.684;2023-01-15T04:55:01;1.48;;;0.88;;
23402;SDS011;11874;48.228;11.684;2023-01-15T04:57:29;1.08;;;0.80;;
23402;SDS011;11874;48.228;11.684;2023-01-15T04:59:57;1.10;;;0.80;;
23402;SDS011;11874;48.228;11.684;2023-01-15T05:02:25;1.95;;;0.80;;
23402;SDS011;11874;48.228;11.684;2023-01-15T05:04:54;1.08;;;0.80;;
23402;SDS011;11874;48.228;11.684;2023-01-15T05:07:22;0.50;;;0.50;;
23402;SDS011;11874;48.228;11.684;2023-01-15T05:09:49;1.35;;;0.65;;
23402;SDS011;11874;48.228;11.684;2023-01-15T05:12:19;1.50;;;0.60;;
23402;SDS011;11874;48.228;11.684;2023-01-15T05:14:48;1.33;;;0.80;;
23402;SDS011;11874;48.228;11.684;2023-01-15T05:17:16;1.67;;;0.80;;
23402;SDS011;11874;48.228;11.684;2023-01-15T05:19:43;0.80;;;0.80;;
23402;SDS011;11874;48.228;11.684;2023-01-15T05:22:13;2.15;;;1.13;;
23402;SDS011;11874;48.228;11.684;2023-01-15T05:24:40;1.65;;;0.95;;
23402;SDS011;11874;48.228;11.684;2023-01-15T05:27:08;1.30;;;1.10;;
23402;SDS011;11874;48.228;11.684;2023-01-15T05:29:36;1.00;;;0.80;;
23402;SDS011;11874;48.228;11.684;2023-01-15T05:32:04;0.57;;;0.57;;
23402;SDS011;11874;48.228;11.684;2023-01-15T05:34:35;2.40;;;0.82;;
23402;SDS011;11874;48.228;11.684;2023-01-15T05:37:02;0.98;;;0.80;;
23402;SDS011;11874;48.228;11.684;2023-01-15T05:39:31;1.65;;;0.80;;
23402;SDS011;11874;48.228;11.684;2023-01-15T05:41:59;1.95;;;0.63;;
23402;SDS011;11874;48.228;11.684;2023-01-15T05:44:28;0.88;;;0.70;;
23402;SDS011;11874;48.228;11.684;2023-01-15T05:46:57;1.52;;;0.73;;
23402;SDS011;11874;48.228;11.684;2023-01-15T05:49:28;0.95;;;0.80;;
23402;SDS011;11874;48.228;11.684;2023-01-15T05:51:56;1.10;;;0.77;;
23402;SDS011;11874;48.228;11.684;2023-01-15T05:54:27;0.63;;;0.63;;
23402;SDS011;11874;48.228;11.684;2023-01-15T05:56:57;0.77;;;0.77;;
23402;SDS011;11874;48.228;11.684;2023-01-15T05:59:27;1.05;;;0.80;;
23402;SDS011;11874;48.228;11.684;2023-01-15T06:01:56;0.55;;;0.43;;
23402;SDS011;11874;48.228;11.684;2023-01-15T06:04:24;0.80;;;0.50;;
23402;SDS011;11874;48.228;11.684;2023-01-15T06:06:52;0.30;;;0.30;;
23402;SDS011;11874;48.228;11.684;2023-01-15T06:09:21;0.88;;;0.60;;
23402;SDS011;11874;48.228;11.684;2023-01-15T06:11:49;0.88;;;0.40;;
23402;SDS011;11874;48.228;11.684;2023-01-15T06:14:20;0.80;;;0.50;;
23402;SDS011;11874;48.228;11.684;2023-01-15T06:16:48;1.27;;;0.52;;
23402;SDS011;11874;48.228;11.684;2023-01-15T06:19:16;0.55;;;0.55;;
23402;SDS011;11874;48.228;11.684;2023-01-15T06:21:44;0.47;;;0.35;;
23402;SDS011;11874;48.228;11.684;2023-01-15T06:24:11;1.00;;;0.30;;
23402;SDS011;11874;48.228;11.684;2023-01-15T06:26:41;0.47;;;0.30;;
23402;SDS011;11874;48.228;11.684;2023-01-15T06:29:09;0.20;;;0.20;;
23402;SDS011;11874;48.228;11.684;2023-01-15T06:31:39;1.30;;;0.50;;
23402;SDS011;11874;48.228;11.684;2023-01-15T06:34:07;0.55;;;0.20;;
23402;SDS011;11874;48.228;11.684;2023-01-15T06:36:35;0.10;;;0.10;;
23402;SDS011;11874;48.228;11.684;2023-01-15T06:39:03;0.20;;;0.20;;
23402;SDS011;11874;48.228;11.684;2023-01-15T06:41:31;0.17;;;0.10;;
23402;SDS011;11874;48.228;11.684;2023-01-15T06:44:17;0.13;;;0.10;;
23402;SDS011;11874;48.228;11.684;2023-01-15T06:47:09;0.25;;;0.20;;
23402;SDS011;11874;48.228;11.684;2023-01-15T06:49:50;0.93;;;0.15;;
23402;SDS011;11874;48.228;11.684;2023-01-15T06:52:19;0.22;;;0.10;;
23402;SDS011;11874;48.228;11.684;2023-01-15T06:54:47;2.20;;;0.15;;
23402;SDS011;11874;48.228;11.684;2023-01-15T06:57:15;0.05;;;0.00;;
23402;SDS011;11874;48.228;11.684;2023-01-15T06:59:44;0.15;;;0.13;;
23402;SDS011;11874;48.228;11.684;2023-01-15T07:02:14;0.10;;;0.10;;
23402;SDS011;11874;48.228;11.684;2023-01-15T07:04:43;0.70;;;0.30;;
23402;SDS011;11874;48.228;11.684;2023-01-15T07:07:10;0.10;;;0.10;;
23402;SDS011;11874;48.228;11.684;2023-01-15T07:09:38;0.10;;;0.10;;
23402;SDS011;11874;48.228;11.684;2023-01-15T07:12:06;1.05;;;0.22;;
23402;SDS011;11874;48.228;11.684;2023-01-15T07:14:34;0.00;;;0.00;;
23402;SDS011;11874;48.228;11.684;2023-01-15T07:17:02;0.80;;;0.20;;
23402;SDS011;11874;48.228;11.684;2023-01-15T07:19:31;0.20;;;0.20;;
23402;SDS011;11874;48.228;11.684;2023-01-15T07:21:59;0.13;;;0.13;;
23402;SDS011;11874;48.228;11.684;2023-01-15T07:24:26;0.15;;;0.10;;
23402;SDS011;11874;48.228;11.684;2023-01-15T07:26:54;1.10;;;0.10;;
23402;SDS011;11874;48.228;11.684;2023-01-15T07:29:22;0.22;;;0.10;;
23402;SDS011;11874;48.228;11.684;2023-01-15T07:31:50;0.20;;;0.20;;
23402;SDS011;11874;48.228;11.684;2023-01-15T07:34:19;1.10;;;0.05;;
23402;SDS011;11874;48.228;11.684;2023-01-15T07:36:48;0.05;;;0.05;;
23402;SDS011;11874;48.228;11.684;2023-01-15T07:39:16;0.20;;;0.10;;
23402;SDS011;11874;48.228;11.684;2023-01-15T07:41:43;0.10;;;0.10;;
23402;SDS011;11874;48.228;11.684;2023-01-15T07:44:30;0.55;;;0.20;;
23402;SDS011;11874;48.228;11.684;2023-01-15T07:47:16;0.22;;;0.17;;
23402;SDS011;11874;48.228;11.684;2023-01-15T07:50:04;0.10;;;0.10;;
23402;SDS011;11874;48.228;11.684;2023-01-15T07:52:35;1.10;;;0.20;;
23402;SDS011;11874;48.228;11.684;2023-01-15T07:55:03;0.20;;;0.13;;
23402;SDS011;11874;48.228;11.684;2023-01-15T07:57:33;0.10;;;0.10;;
23402;SDS011;11874;48.228;11.684;2023-01-15T08:00:02;0.10;;;0.10;;
23402;SDS011;11874;48.228;11.684;2023-01-15T08:02:31;0.10;;;0.10;;
23402;SDS011;11874;48.228;11.684;2023-01-15T08:04:59;0.13;;;0.10;;
23402;SDS011;11874;48.228;11.684;2023-01-15T08:07:26;0.38;;;0.10;;
23402;SDS011;11874;48.228;11.684;2023-01-15T08:09:56;0.10;;;0.10;;
23402;SDS011;11874;48.228;11.684;2023-01-15T08:12:23;0.22;;;0.22;;
23402;SDS011;11874;48.228;11.684;2023-01-15T08:15:09;1.20;;;0.22;;
23402;SDS011;11874;48.228;11.684;2023-01-15T08:17:40;0.10;;;0.10;;
23402;SDS011;11874;48.228;11.684;2023-01-15T08:20:10;0.10;;;0.10;;
23402;SDS011;11874;48.228;11.684;2023-01-15T08:22:40;1.60;;;0.20;;
23402;SDS011;11874;48.228;11.684;2023-01-15T08:25:11;1.00;;;0.15;;
23402;SDS011;11874;48.228;11.684;2023-01-15T08:27:40;0.38;;;0.20;;
23402;SDS011;11874;48.228;11.684;2023-01-15T08:30:09;0.20;;;0.10;;
23402;SDS011;11874;48.228;11.684;2023-01-15T08:32:39;0.20;;;0.20;;
23402;SDS011;11874;48.228;11.684;2023-01-15T08:35:07;0.40;;;0.28;;
23402;SDS011;11874;48.228;11.684;2023-01-15T08:37:36;1.98;;;0.10;;
23402;SDS011;11874;48.228;11.684;2023-01-15T08:40:04;0.40;;;0.20;;
23402;SDS011;11874;48.228;11.684;2023-01-15T08:42:34;0.30;;;0.15;;
23402;SDS011;11874;48.228;11.684;2023-01-15T08:45:02;0.40;;;0.25;;
23402;SDS011;11874;48.228;11.684;2023-01-15T08:47:30;0.60;;;0.17;;
23402;SDS011;11874;48.228;11.684;2023-01-15T08:49:58;0.20;;;0.20;;
23402;SDS011;11874;48.228;11.684;2023-01-15T08:52:26;0.35;;;0.20;;
23402;SDS011;11874;48.228;11.684;2023-01-15T08:54:54;0.20;;;0.20;;
23402;SDS011;11874;48.228;11.684;2023-01-15T08:57:21;0.20;;;0.10;;
23402;SDS011;11874;48.228;11.684;2023-01-15T08:59:51;0.22;;;0.13;;
23402;SDS011;11874;48.228;11.684;2023-01-15T09:02:18;0.63;;;0.20;;
23402;SDS011;11874;48.228;11.684;2023-01-15T09:04:46;0.75;;;0.25;;
23402;SDS011;11874;48.228;11.684;2023-01-15T09:07:14;0.93;;;0.20;;
23402;SDS011;11874;48.228;11.684;2023-01-15T09:09:42;0.10;;;0.10;;
23402;SDS011;11874;48.228;11.684;2023-01-15T09:12:09;0.93;;;0.08;;
23402;SDS011;11874;48.228;11.684;2023-01-15T09:14:37;0.10;;;0.10;;
23402;SDS011;11874;48.228;11.684;2023-01-15T09:17:26;0.52;;;0.20;;
23402;SDS011;11874;48.228;11.684;2023-01-15T09:19:54;0.30;;;0.30;;
23402;SDS011;11874;48.228;11.684;2023-01-15T09:22:22;0.20;;;0.20;;
23402;SDS011;11874;48.228;11.684;2023-01-15T09:24:50;0.15;;;0.15;;
23402;SDS011;11874;48.228;11.684;2023-01-15T09:27:18;0.28;;;0.20;;
23402;SDS011;11874;48.228;11.684;2023-01-15T09:29:46;0.40;;;0.30;;
23402;SDS011;11874;48.228;11.684;2023-01-15T09:32:13;0.20;;;0.20;;
23402;SDS011;11874;48.228;11.684;2023-01-15T09:34:42;0.38;;;0.20;;
23402;SDS011;11874;48.228;11.684;2023-01-15T09:37:10;0.40;;;0.20;;
23402;SDS011;11874;48.228;11.684;2023-01-15T09:39:38;1.00;;;0.38;;
23402;SDS011;11874;48.228;11.684;2023-01-15T09:42:10;0.32;;;0.30;;
23402;SDS011;11874;48.228;11.684;2023-01-15T09:44:54;0.20;;;0.20;;
23402;SDS011;11874;48.228;11.684;2023-01-15T09:47:35;0.30;;;0.30;;
23402;SDS011;11874;48.228;11.684;2023-01-15T09:50:17;1.75;;;0.32;;
23402;SDS011;11874;48.228;11.684;2023-01-15T09:53:07;0.90;;;0.10;;
23402;SDS011;11874;48.228;11.684;2023-01-15T09:55:45;1.35;;;0.52;;
23402;SDS011;11874;48.228;11.684;2023-01-15T09:58:14;0.90;;;0.50;;
23402;SDS011;11874;48.228;11.684;2023-01-15T10:00:47;0.73;;;0.40;;
23402;SDS011;11874;48.228;11.684;2023-01-15T10:03:20;0.50;;;0.35;;
23402;SDS011;11874;48.228;11.684;2023-01-15T10:05:57;0.45;;;0.40;;
23402;SDS011;11874;48.228;11.684;2023-01-15T10:08:33;0.30;;;0.30;;
23402;SDS011;11874;48.228;11.684;2023-01-15T10:11:04;0.70;;;0.40;;
23402;SDS011;11874;48.228;11.684;2023-01-15T10:13:44;0.63;;;0.20;;
23402;SDS011;11874;48.228;11.684;2023-01-15T10:16:17;2.20;;;0.13;;
23402;SDS011;11874;48.228;11.684;2023-01-15T10:18:48;0.40;;;0.40;;
23402;SDS011;11874;48.228;11.684;2023-01-15T10:21:20;0.20;;;0.20;;
23402;SDS011;11874;48.228;11.684;2023-01-15T10:23:59;0.10;;;0.00;;
23402;SDS011;11874;48.228;11.684;2023-01-15T10:26:32;14.05;;;0.40;;
23402;SDS011;11874;48.228;11.684;2023-01-15T10:29:05;0.30;;;0.20;;
23402;SDS011;11874;48.228;11.684;2023-01-15T10:31:44;0.15;;;0.10;;
23402;SDS011;11874;48.228;11.684;2023-01-15T10:34:27;0.20;;;0.20;;
23402;SDS011;11874;48.228;11.684;2023-01-15T10:37:19;0.10;;;0.10;;
23402;SDS011;11874;48.228;11.684;2023-01-15T10:39:57;0.43;;;0.20;;
23402;SDS011;11874;48.228;11.684;2023-01-15T10:42:49;0.13;;;0.13;;
23402;SDS011;11874;48.228;11.684;2023-01-15T10:45:24;0.22;;;0.22;;
23402;SDS011;11874;48.228;11.684;2023-01-15T10:47:56;0.60;;;0.47;;
23402;SDS011;11874;48.228;11.684;2023-01-15T10:50:30;0.25;;;0.13;;
23402;SDS011;11874;48.228;11.684;2023-01-15T10:53:03;0.10;;;0.10;;
23402;SDS011;11874;48.228;11.684;2023-01-15T10:55:36;0.40;;;0.40;;
23402;SDS011;11874;48.228;11.684;2023-01-15T10:58:10;0.30;;;0.30;;
23402;SDS011;11874;48.228;11.684;2023-01-15T11:00:45;0.30;;;0.30;;
23402;SDS011;11874;48.228;11.684;2023-01-15T11:03:18;0.20;;;0.20;;
23402;SDS011;11874;48.228;11.684;2023-01-15T11:05:49;0.20;;;0.20;;
23402;SDS011;11874;48.228;11.684;2023-01-15T11:08:20;0.52;;;0.20;;
23402;SDS011;11874;48.228;11.684;2023-01-15T11:11:16;0.10;;;0.10;;
23402;SDS011;11874;48.228;11.684;2023-01-15T11:13:53;0.52;;;0.10;;
23402;SDS011;11874;48.228;11.684;2023-01-15T11:16:40;0.10;;;0.10;;
23402;SDS011;11874;48.228;11.684;2023-01-15T11:19:27;0.17;;;0.17;;
23402;SDS011;11874;48.228;11.684;2023-01-15T11:22:06;0.30;;;0.10;;
23402;SDS011;11874;48.228;11.684;2023-01-15T11:24:43;0.45;;;0.08;;
23402;SDS011;11874;48.228;11.684;2023-01-15T11:27:14;0.10;;;0.10;;
23402;SDS011;11874;48.228;11.684;2023-01-15T11:29:44;0.20;;;0.20;;
23402;SDS011;11874;48.228;11.684;2023-01-15T11:32:22;0.68;;;0.30;;
23402;SDS011;11874;48.228;11.684;2023-01-15T11:34:55;0.22;;;0.20;;
23402;SDS011;11874;48.228;11.684;2023-01-15T11:37:24;0.30;;;0.10;;
23402;SDS011;11874;48.228;11.684;2023-01-15T11:39:55;0.17;;;0.10;;
23402;SDS011;11874;48.228;11.684;2023-01-15T11:42:25;0.00;;;0.00;;
23402;SDS011;11874;48.228;11.684;2023-01-15T11:45:12;0.00;;;0.00;;
23402;SDS011;11874;48.228;11.684;2023-01-15T11:47:59;0.30;;;0.10;;
23402;SDS011;11874;48.228;11.684;2023-01-15T11:50:52;0.20;;;0.20;;
23402;SDS011;11874;48.228;11.684;2023-01-15T11:53:22;0.17;;;0.17;;
23402;SDS011;11874;48.228;11.684;2023-01-15T11:55:56;0.13;;;0.10;;
23402;SDS011;11874;48.228;11.684;2023-01-15T11:58:27;0.32;;;0.32;;
23402;SDS011;11874;48.228;11.684;2023-01-15T12:00:59;0.20;;;0.20;;
23402;SDS011;11874;48.228;11.684;2023-01-15T12:03:28;0.28;;;0.28;;
23402;SDS011;11874;48.228;11.684;2023-01-15T12:05:58;0.30;;;0.30;;
23402;SDS011;11874;48.228;11.684;2023-01-15T12:08:44;0.30;;;0.30;;
23402;SDS011;11874;48.228;11.684;2023-01-15T12:11:29;0.20;;;0.20;;
23402;SDS011;11874;48.228;11.684;2023-01-15T12:14:10;0.40;;;0.20;;
23402;SDS011;11874;48.228;11.684;2023-01-15T12:16:56;1.05;;;0.40;;
23402;SDS011;11874;48.228;11.684;2023-01-15T12:19:29;0.20;;;0.20;;
23402;SDS011;11874;48.228;11.684;2023-01-15T12:22:08;0.30;;;0.30;;
23402;SDS011;11874;48.228;11.684;2023-01-15T12:25:03;0.20;;;0.20;;
23402;SDS011;11874;48.228;11.684;2023-01-15T12:27:57;0.30;;;0.30;;
23402;SDS011;11874;48.228;11.684;2023-01-15T12:30:36;0.43;;;0.30;;
23402;SDS011;11874;48.228;11.684;2023-01-15T12:33:10;0.20;;;0.20;;
23402;SDS011;11874;48.228;11.684;2023-01-15T12:35:46;0.10;;;0.10;;
23402;SDS011;11874;48.228;11.684;2023-01-15T12:38:24;0.30;;;0.30;;
23402;SDS011;11874;48.228;11.684;2023-01-15T12:41:00;0.68;;;0.45;;
23402;SDS011;11874;48.228;11.684;2023-01-15T12:43:34;0.50;;;0.50;;
23402;SDS011;11874;48.228;11.684;2023-01-15T12:46:22;1.60;;;0.30;;
23402;SDS011;11874;48.228;11.684;2023-01-15T12:48:56;3.65;;;1.60;;
23402;SDS011;11874;48.228;11.684;2023-01-15T12:51:30;0.40;;;0.40;;
23402;SDS011;11874;48.228;11.684;2023-01-15T12:54:03;2.15;;;0.70;;
23402;SDS011;11874;48.228;11.684;2023-01-15T12:56:36;0.93;;;0.60;;
23402;SDS011;11874;48.228;11.684;2023-01-15T12:59:17;1.10;;;0.88;;
23402;SDS011;11874;48.228;11.684;2023-01-15T13:01:50;0.93;;;0.40;;
23402;SDS011;11874;48.228;11.684;2023-01-15T13:04:23;0.63;;;0.45;;
23402;SDS011;11874;48.228;11.684;2023-01-15T13:06:57;0.40;;;0.40;;
23402;SDS011;11874;48.228;11.684;2023-01-15T13:09:33;1.80;;;0.60;;
23402;SDS011;11874;48.228;11.684;2023-01-15T13:12:09;0.60;;;0.60;;
23402;SDS011;11874;48.228;11.684;2023-01-15T13:14:40;0.82;;;0.50;;
23402;SDS011;11874;48.228;11.684;2023-01-15T13:19:46;1.23;;;0.47;;
23402;SDS011;11874;48.228;11.684;2023-01-15T13:22:26;0.50;;;0.35;;
23402;SDS011;11874;48.228;11.684;2023-01-15T13:25:05;1.65;;;0.50;;
23402;SDS011;11874;48.228;11.684;2023-01-15T13:27:54;1.20;;;0.70;;
23402;SDS011;11874;48.228;11.684;2023-01-15T13:30:39;2.17;;;0.65;;
23402;SDS011;11874;48.228;11.684;2023-01-15T13:33:16;0.93;;;0.63;;
23402;SDS011;11874;48.228;11.684;2023-01-15T13:35:50;0.70;;;0.60;;
23402;SDS011;11874;48.228;11.684;2023-01-15T13:40:53;0.60;;;0.52;;
23402;SDS011;11874;48.228;11.684;2023-01-15T13:43:26;1.48;;;0.73;;
23402;SDS011;11874;48.228;11.684;2023-01-15T13:46:01;2.05;;;0.98;;
23402;SDS011;11874;48.228;11.684;2023-01-15T13:48:32;2.40;;;0.68;;
23402;SDS011;11874;48.228;11.684;2023-01-15T13:51:03;0.30;;;0.30;;
23402;SDS011;11874;48.228;11.684;2023-01-15T13:53:32;0.65;;;0.40;;
23402;SDS011;11874;48.228;11.684;2023-01-15T13:56:02;0.60;;;0.50;;
23402;SDS011;11874;48.228;11.684;2023-01-15T13:58:33;1.45;;;0.17;;
23402;SDS011;11874;48.228;11.684;2023-01-15T14:01:06;0.20;;;0.20;;
23402;SDS011;11874;48.228;11.684;2023-01-15T14:03:54;0.20;;;0.20;;
23402;SDS011;11874;48.228;11.684;2023-01-15T14:06:36;0.47;;;0.40;;
23402;SDS011;11874;48.228;11.684;2023-01-15T14:09:05;0.35;;;0.30;;
23402;SDS011;11874;48.228;11.684;2023-01-15T14:11:37;0.33;;;0.33;;
23402;SDS011;11874;48.228;11.684;2023-01-15T14:14:25;0.32;;;0.30;;
23402;SDS011;11874;48.228;11.684;2023-01-15T14:23:24;0.30;;;0.30;;
23402;SDS011;11874;48.228;11.684;2023-01-15T14:26:05;1.52;;;0.90;;
23402;SDS011;11874;48.228;11.684;2023-01-15T14:28:47;0.65;;;0.45;;
23402;SDS011;11874;48.228;11.684;2023-01-15T14:31:48;1.80;;;1.50;;
23402;SDS011;11874;48.228;11.684;2023-01-15T14:34:25;0.40;;;0.40;;
23402;SDS011;11874;48.228;11.684;2023-01-15T14:36:56;1.05;;;0.50;;
23402;SDS011;11874;48.228;11.684;2023-01-15T14:39:28;1.00;;;0.30;;
23402;SDS011;11874;48.228;11.684;2023-01-15T14:42:01;1.80;;;0.30;;
23402;SDS011;11874;48.228;11.684;2023-01-15T14:44:57;0.40;;;0.40;;
23402;SDS011;11874;48.228;11.684;2023-01-15T14:47:29;1.00;;;0.30;;
23402;SDS011;11874;48.228;11.684;2023-01-15T14:50:20;0.60;;;0.30;;
23402;SDS011;11874;48.228;11.684;2023-01-15T14:52:51;5.60;;;0.70;;
23402;SDS011;11874;48.228;11.684;2023-01-15T14:55:20;0.70;;;0.63;;
23402;SDS011;11874;48.228;11.684;2023-01-15T14:57:51;1.13;;;0.50;;
23402;SDS011;11874;48.228;11.684;2023-01-15T15:00:23;0.40;;;0.40;;
23402;SDS011;11874;48.228;11.684;2023-01-15T15:02:56;0.75;;;0.55;;
23402;SDS011;11874;48.228;11.684;2023-01-15T15:05:28;0.47;;;0.32;;
23402;SDS011;11874;48.228;11.684;2023-01-15T15:10:30;2.08;;;0.80;;
23402;SDS011;11874;48.228;11.684;2023-01-15T15:13:04;1.25;;;0.75;;
23402;SDS011;11874;48.228;11.684;2023-01-15T15:15:41;0.77;;;0.73;;
23402;SDS011;11874;48.228;11.684;2023-01-15T15:18:15;0.75;;;0.70;;
23402;SDS011;11874;48.228;11.684;2023-01-15T15:20:57;0.95;;;0.50;;
23402;SDS011;11874;48.228;11.684;2023-01-15T15:23:33;1.65;;;0.50;;
23402;SDS011;11874;48.228;11.684;2023-01-15T15:26:16;0.60;;;0.60;;